createdAt,value
2022-11-28T00:01:29.577Z,24.58
2022-11-28T00:03:57.197Z,25.48
2022-11-28T00:06:25.427Z,30.17
2022-11-28T00:08:53.103Z,27.33
2022-11-28T00:11:21.149Z,25.88
2022-11-28T00:13:48.981Z,26.38
2022-11-28T00:16:21.360Z,29.40
2022-11-28T00:18:54.574Z,27.15
2022-11-28T00:21:23.300Z,28.92
2022-11-28T00:23:52.851Z,26.73
2022-11-28T00:26:27.168Z,26.85
2022-11-28T00:28:56.575Z,26.17
2022-11-28T00:31:26.163Z,28.10
2022-11-28T00:33:54.202Z,26.88
2022-11-28T00:36:22.935Z,27.13
2022-11-28T00:38:51.257Z,27.40
2022-11-28T00:41:28.421Z,26.42
2022-11-28T00:43:55.956Z,25.75
2022-11-28T00:46:24.610Z,29.25
2022-11-28T00:48:52.395Z,26.63
2022-11-28T00:51:22.902Z,30.63
2022-11-28T00:53:52.151Z,28.80
2022-11-28T00:56:22.305Z,26.08
2022-11-28T00:58:50.003Z,27.48
2022-11-28T01:01:17.286Z,26.85
2022-11-28T01:03:45.680Z,27.67
2022-11-28T01:06:13.697Z,26.38
2022-11-28T01:08:41.038Z,27.15
2022-11-28T01:11:12.939Z,26.85
2022-11-28T01:16:09.454Z,25.92
2022-11-28T01:18:37.802Z,27.02
2022-11-28T01:21:07.016Z,25.98
2022-11-28T01:23:35.285Z,26.33
2022-11-28T01:26:03.782Z,28.45
2022-11-28T01:28:31.161Z,28.85
2022-11-28T01:31:04.482Z,28.30
2022-11-28T01:33:33.212Z,28.73
2022-11-28T01:36:01.101Z,26.75
2022-11-28T01:38:29.459Z,27.42
2022-11-28T01:40:58.054Z,27.10
2022-11-28T01:43:25.535Z,27.38
2022-11-28T01:45:53.299Z,27.73
2022-11-28T01:48:29.323Z,27.67
2022-11-28T01:51:01.059Z,26.50
2022-11-28T01:53:31.122Z,27.83
2022-11-28T01:56:20.984Z,27.10
2022-11-28T01:58:53.970Z,27.80
2022-11-28T02:01:24.365Z,26.42
2022-11-28T02:03:53.331Z,27.90
2022-11-28T02:06:23.317Z,27.70
2022-11-28T02:08:52.698Z,27.42
2022-11-28T02:11:44.754Z,24.08
2022-11-28T02:14:44.285Z,25.30
2022-11-28T02:17:33.419Z,25.48
2022-11-28T02:20:18.631Z,26.52
2022-11-28T02:23:15.379Z,26.73
2022-11-28T02:26:13.839Z,25.63
2022-11-28T02:28:50.410Z,26.50
2022-11-28T02:31:52.954Z,26.48
2022-11-28T02:34:40.345Z,25.67
2022-11-28T02:37:30.239Z,26.25
2022-11-28T02:40:14.578Z,26.13
2022-11-28T02:43:20.362Z,25.20
2022-11-28T02:45:59.919Z,25.27
2022-11-28T02:48:31.602Z,27.33
2022-11-28T02:51:06.321Z,26.15
2022-11-28T02:53:35.030Z,27.08
2022-11-28T02:56:02.649Z,26.58
2022-11-28T02:58:30.103Z,25.77
2022-11-28T03:00:57.779Z,24.83
2022-11-28T03:03:46.246Z,26.67
2022-11-28T03:06:44.533Z,26.08
2022-11-28T03:09:46.369Z,26.77
2022-11-28T03:12:51.552Z,27.10
2022-11-28T03:15:28.994Z,25.27
2022-11-28T03:18:06.050Z,25.50
2022-11-28T03:20:39.682Z,25.42
2022-11-28T03:23:23.687Z,25.67
2022-11-28T03:26:01.778Z,24.95
2022-11-28T03:28:40.572Z,25.70
2022-11-28T03:31:15.688Z,25.05
2022-11-28T03:33:50.070Z,25.67
2022-11-28T03:36:31.403Z,25.58
2022-11-28T03:39:04.985Z,25.35
2022-11-28T03:42:07.295Z,23.98
2022-11-28T03:44:45.568Z,23.98
2022-11-28T03:47:12.910Z,25.65
2022-11-28T03:49:53.006Z,25.52
2022-11-28T03:52:35.963Z,25.13
2022-11-28T03:55:13.578Z,24.67
2022-11-28T03:58:09.942Z,24.35
2022-11-28T04:00:48.713Z,24.52
2022-11-28T04:03:33.042Z,24.95
2022-11-28T04:06:07.994Z,23.98
2022-11-28T04:08:53.001Z,23.60
2022-11-28T04:11:25.943Z,26.08
2022-11-28T04:14:12.352Z,24.02
2022-11-28T04:16:56.714Z,23.52
2022-11-28T04:19:46.516Z,24.30
2022-11-28T04:22:21.356Z,23.35
2022-11-28T04:24:54.426Z,23.58
2022-11-28T04:27:30.577Z,24.88
2022-11-28T04:30:01.657Z,25.73
2022-11-28T04:32:32.429Z,24.08
2022-11-28T04:35:06.506Z,24.55
2022-11-28T04:37:37.351Z,24.90
2022-11-28T04:40:08.184Z,25.55
2022-11-28T04:42:49.919Z,24.60
2022-11-28T04:45:30.855Z,24.95
2022-11-28T04:47:59.080Z,24.85
2022-11-28T04:50:32.076Z,24.48
2022-11-28T04:53:33.076Z,23.77
2022-11-28T04:56:05.295Z,23.70
2022-11-28T04:58:40.360Z,24.27
2022-11-28T05:01:11.764Z,24.27
2022-11-28T05:03:42.759Z,25.05
2022-11-28T05:06:11.065Z,25.17
2022-11-28T05:08:38.645Z,24.38
2022-11-28T05:11:05.941Z,23.88
2022-11-28T05:13:33.199Z,24.35
2022-11-28T05:16:01.469Z,24.63
2022-11-28T05:18:31.021Z,24.77
2022-11-28T05:20:59.276Z,23.55
2022-11-28T05:23:26.586Z,23.67
2022-11-28T05:25:53.832Z,24.35
2022-11-28T05:28:21.071Z,24.13
2022-11-28T05:30:58.121Z,25.52
2022-11-28T05:33:25.459Z,24.88
2022-11-28T05:35:52.983Z,24.27
2022-11-28T05:38:20.316Z,24.10
2022-11-28T05:40:48.361Z,24.83
2022-11-28T05:43:16.234Z,23.95
2022-11-28T05:45:44.973Z,23.58
2022-11-28T05:48:12.697Z,23.63
2022-11-28T05:50:41.523Z,23.58
2022-11-28T05:53:09.473Z,24.13
2022-11-28T05:55:41.149Z,23.40
2022-11-28T05:58:08.621Z,24.42
2022-11-28T06:00:36.272Z,23.17
2022-11-28T06:03:04.742Z,24.20
2022-11-28T06:05:42.643Z,24.50
2022-11-28T06:08:12.429Z,24.20
2022-11-28T06:10:40.903Z,24.65
2022-11-28T06:13:08.899Z,24.58
2022-11-28T06:15:37.955Z,25.25
2022-11-28T06:18:06.063Z,25.33
2022-11-28T06:20:35.223Z,23.17
2022-11-28T06:23:02.892Z,24.02
2022-11-28T06:25:30.545Z,23.20
2022-11-28T06:27:57.786Z,24.58
2022-11-28T06:30:25.347Z,23.88
2022-11-28T06:32:53.030Z,24.67
2022-11-28T06:35:20.786Z,24.17
2022-11-28T06:37:48.548Z,22.92
2022-11-28T06:40:16.001Z,24.90
2022-11-28T06:42:43.939Z,24.23
2022-11-28T06:45:11.644Z,25.63
2022-11-28T06:47:39.297Z,23.63
2022-11-28T06:50:09.659Z,25.50
2022-11-28T06:52:37.235Z,25.55
2022-11-28T06:55:04.788Z,30.10
2022-11-28T06:57:32.807Z,32.58
2022-11-28T07:00:00.115Z,38.92
2022-11-28T07:02:28.043Z,39.28
2022-11-28T07:04:55.346Z,33.38
2022-11-28T07:07:23.072Z,31.00
2022-11-28T07:09:51.027Z,31.27
2022-11-28T07:12:19.595Z,31.88
2022-11-28T07:14:47.517Z,31.67
2022-11-28T07:17:15.337Z,31.77
2022-11-28T07:19:43.179Z,31.77
2022-11-28T07:22:11.763Z,33.58
2022-11-28T07:24:39.234Z,30.90
2022-11-28T07:27:06.551Z,29.67
2022-11-28T07:29:36.810Z,29.75
2022-11-28T07:32:06.205Z,33.88
2022-11-28T07:34:33.809Z,32.47
2022-11-28T07:37:01.689Z,33.95
2022-11-28T07:39:29.001Z,31.08
2022-11-28T07:41:56.503Z,31.00
2022-11-28T07:44:23.954Z,31.55
2022-11-28T07:46:51.695Z,32.05
2022-11-28T07:49:19.451Z,33.63
2022-11-28T07:51:47.705Z,33.80
2022-11-28T07:54:15.031Z,35.65
2022-11-28T07:59:30.605Z,35.72
2022-11-28T08:01:58.073Z,34.47
2022-11-28T08:04:25.494Z,34.92
2022-11-28T08:06:52.895Z,41.53
2022-11-28T08:09:20.173Z,41.58
2022-11-28T08:11:47.555Z,30.83
2022-11-28T08:14:14.861Z,26.92
2022-11-28T08:16:45.128Z,29.08
2022-11-28T08:19:13.281Z,26.90
2022-11-28T08:21:41.777Z,27.52
2022-11-28T08:24:10.772Z,30.50
2022-11-28T08:26:38.267Z,36.63
2022-11-28T08:29:05.615Z,33.25
2022-11-28T08:31:36.815Z,29.80
2022-11-28T08:34:07.378Z,28.25
2022-11-28T08:36:34.835Z,30.65
2022-11-28T08:41:56.995Z,32.92
2022-11-28T08:44:25.541Z,32.28
2022-11-28T08:46:53.738Z,32.58
2022-11-28T08:49:21.035Z,35.22
2022-11-28T08:51:48.371Z,34.75
2022-11-28T08:54:16.183Z,31.35
2022-11-28T08:56:45.259Z,32.42
2022-11-28T08:59:12.949Z,31.88
2022-11-28T09:01:41.681Z,31.17
2022-11-28T09:04:11.731Z,32.83
2022-11-28T09:06:40.269Z,32.13
2022-11-28T09:09:09.102Z,31.85
2022-11-28T09:11:37.373Z,33.20
2022-11-28T09:14:05.731Z,32.70
2022-11-28T09:16:33.139Z,32.78
2022-11-28T09:19:01.069Z,35.47
2022-11-28T09:21:28.347Z,34.88
2022-11-28T09:23:56.470Z,33.55
2022-11-28T09:26:25.382Z,35.05
2022-11-28T09:28:53.798Z,35.40
2022-11-28T09:31:21.596Z,34.00
2022-11-28T09:33:51.763Z,32.72
2022-11-28T09:36:22.150Z,34.55
2022-11-28T09:38:49.924Z,34.13
2022-11-28T09:41:39.118Z,35.83
2022-11-28T09:44:24.206Z,35.13
2022-11-28T09:46:55.295Z,34.83
2022-11-28T09:49:34.013Z,35.80
2022-11-28T09:52:18.007Z,35.28
2022-11-28T09:54:52.497Z,35.10
2022-11-28T09:57:33.535Z,35.42
2022-11-28T10:00:01.455Z,35.60
2022-11-28T10:03:14.477Z,34.20
2022-11-28T10:06:10.779Z,35.88
2022-11-28T10:09:15.182Z,35.22
2022-11-28T10:11:53.795Z,35.53
2022-11-28T10:14:35.715Z,33.85
2022-11-28T10:19:56.199Z,35.97
2022-11-28T10:22:44.484Z,36.58
2022-11-28T10:25:21.269Z,34.83
2022-11-28T10:27:50.306Z,34.63
2022-11-28T10:30:28.928Z,32.83
2022-11-28T10:32:59.522Z,34.25
2022-11-28T10:35:35.505Z,33.83
2022-11-28T10:38:10.314Z,35.55
2022-11-28T10:40:58.426Z,36.42
2022-11-28T10:43:32.911Z,34.40
2022-11-28T10:46:14.116Z,36.95
2022-11-28T10:49:12.528Z,37.67
2022-11-28T10:51:54.958Z,38.45
2022-11-28T10:54:46.899Z,37.28
2022-11-28T10:57:32.995Z,38.67
2022-11-28T11:00:13.115Z,43.15
2022-11-28T11:02:49.235Z,42.10
2022-11-28T11:05:28.940Z,39.90
2022-11-28T11:08:11.478Z,37.85
2022-11-28T11:10:49.238Z,40.75
2022-11-28T11:13:26.342Z,37.25
2022-11-28T11:16:00.947Z,37.78
2022-11-28T11:18:34.943Z,49.03
2022-11-28T11:21:18.322Z,38.30
2022-11-28T11:23:47.487Z,35.53
2022-11-28T11:26:27.735Z,37.30
2022-11-28T11:28:56.176Z,35.88
2022-11-28T11:31:44.923Z,36.70
2022-11-28T11:34:21.383Z,35.78
2022-11-28T11:36:49.814Z,35.33
2022-11-28T11:39:23.760Z,36.72
2022-11-28T11:42:00.519Z,34.15
2022-11-28T11:44:29.822Z,35.60
2022-11-28T11:47:03.998Z,34.90
2022-11-28T11:49:41.468Z,33.70
2022-11-28T11:52:14.976Z,35.45
2022-11-28T11:54:57.478Z,34.88
2022-11-28T11:57:33.654Z,34.80
2022-11-28T12:00:13.677Z,35.70
2022-11-28T12:03:11.689Z,36.93
2022-11-28T12:06:14.383Z,35.75
2022-11-28T12:09:09.212Z,39.30
2022-11-28T12:11:47.085Z,39.17
2022-11-28T12:14:34.216Z,39.47
2022-11-28T12:20:42.184Z,34.50
2022-11-28T12:23:30.850Z,33.08
2022-11-28T12:26:14.374Z,32.30
2022-11-28T12:29:07.103Z,30.20
2022-11-28T12:31:44.822Z,27.48
2022-11-28T12:34:21.199Z,26.65
2022-11-28T12:37:09.571Z,25.60
2022-11-28T12:39:49.614Z,27.17
2022-11-28T12:42:29.489Z,27.08
2022-11-28T12:45:21.724Z,29.75
2022-11-28T12:50:32.071Z,26.15
2022-11-28T12:53:21.196Z,26.83
2022-11-28T12:56:10.869Z,32.53
2022-11-28T12:58:47.476Z,28.92
2022-11-28T13:01:20.810Z,28.42
2022-11-28T13:04:13.709Z,29.60
2022-11-28T13:07:15.467Z,29.80
2022-11-28T13:09:58.485Z,30.95
2022-11-28T13:12:30.255Z,32.75
2022-11-28T13:15:22.859Z,60.42
2022-11-28T13:18:22.559Z,38.80
2022-11-28T13:21:07.156Z,32.78
2022-11-28T13:23:47.901Z,33.13
2022-11-28T13:26:18.264Z,37.85
2022-11-28T13:28:57.845Z,32.63
2022-11-28T13:31:29.545Z,30.63
2022-11-28T13:39:51.885Z,28.85
2022-11-28T13:43:02.359Z,31.20
2022-11-28T13:45:32.239Z,29.60
2022-11-28T13:48:20.259Z,30.25
2022-11-28T13:51:18.578Z,32.00
2022-11-28T13:53:49.489Z,34.42
2022-11-28T13:56:23.880Z,42.33
2022-11-28T13:59:00.752Z,32.90
2022-11-28T14:01:42.601Z,33.08
2022-11-28T14:04:13.648Z,33.92
2022-11-28T14:06:44.717Z,37.65
2022-11-28T14:09:12.345Z,36.97
2022-11-28T14:11:42.828Z,36.38
2022-11-28T14:14:35.585Z,36.50
2022-11-28T14:19:58.132Z,34.88
2022-11-28T14:22:56.674Z,37.08
2022-11-28T14:25:31.026Z,42.25
2022-11-28T14:28:16.003Z,39.47
2022-11-28T14:30:45.702Z,39.50
2022-11-28T14:33:47.354Z,38.17
2022-11-28T14:36:30.687Z,37.60
2022-11-28T14:39:03.815Z,38.10
2022-11-28T14:41:31.355Z,38.30
2022-11-28T14:44:54.770Z,38.00
2022-11-28T14:47:23.713Z,38.47
2022-11-28T14:50:06.090Z,39.72
2022-11-28T14:52:46.450Z,38.35
2022-11-28T14:55:20.532Z,40.55
2022-11-28T14:57:59.672Z,39.85
2022-11-28T15:00:35.033Z,39.60
2022-11-28T15:03:36.617Z,38.90
2022-11-28T15:06:20.938Z,41.42
2022-11-28T15:09:07.087Z,40.40
2022-11-28T15:12:08.293Z,37.92
2022-11-28T15:14:38.822Z,41.28
2022-11-28T15:17:12.083Z,45.97
2022-11-28T15:19:47.559Z,42.70
2022-11-28T15:22:39.539Z,39.40
2022-11-28T15:25:29.458Z,41.38
2022-11-28T15:28:13.450Z,39.65
2022-11-28T15:30:47.068Z,40.13
2022-11-28T15:33:15.575Z,41.35
2022-11-28T15:36:12.970Z,40.45
2022-11-28T15:38:42.974Z,40.58
2022-11-28T15:41:10.735Z,48.95
2022-11-28T15:43:44.468Z,45.33
2022-11-28T15:46:24.656Z,40.05
2022-11-28T15:48:53.064Z,39.47
2022-11-28T15:51:32.886Z,41.80
2022-11-28T15:54:27.462Z,40.65
2022-11-28T15:56:59.699Z,39.25
2022-11-28T15:59:28.031Z,42.10
2022-11-28T16:02:00.487Z,39.45
2022-11-28T16:04:29.730Z,39.58
2022-11-28T16:07:00.994Z,41.17
2022-11-28T16:09:35.054Z,41.30
2022-11-28T16:12:05.651Z,40.83
2022-11-28T16:14:35.645Z,40.05
2022-11-28T16:17:13.303Z,38.45
2022-11-28T16:19:43.747Z,37.95
2022-11-28T16:22:17.580Z,38.72
2022-11-28T16:24:55.312Z,39.72
2022-11-28T16:27:44.373Z,40.03
2022-11-28T16:30:26.872Z,41.00
2022-11-28T16:32:55.947Z,42.15
2022-11-28T16:35:40.318Z,41.83
2022-11-28T16:38:23.634Z,45.08
2022-11-28T16:40:58.941Z,43.30
2022-11-28T16:43:32.457Z,38.92
2022-11-28T16:46:01.963Z,40.90
2022-11-28T16:48:36.554Z,40.30
2022-11-28T16:51:13.219Z,40.85
2022-11-28T16:53:51.907Z,39.35
2022-11-28T16:56:29.759Z,42.50
2022-11-28T16:59:09.732Z,45.28
2022-11-28T17:01:37.464Z,49.15
2022-11-28T17:04:05.138Z,58.90
2022-11-28T17:06:37.377Z,48.08
2022-11-28T17:09:09.325Z,43.13
2022-11-28T17:14:13.083Z,39.63
2022-11-28T17:16:42.947Z,40.92
2022-11-28T17:19:10.837Z,40.08
2022-11-28T17:21:48.656Z,40.42
2022-11-28T17:24:22.236Z,41.20
2022-11-28T17:26:50.739Z,40.17
2022-11-28T17:29:19.941Z,39.72
2022-11-28T17:31:48.803Z,43.30
2022-11-28T17:34:21.875Z,42.13
2022-11-28T17:36:49.640Z,44.88
2022-11-28T17:39:18.514Z,45.30
2022-11-28T17:41:47.438Z,44.45
2022-11-28T17:44:33.082Z,43.53
2022-11-28T17:47:02.762Z,40.60
2022-11-28T17:49:33.736Z,41.08
2022-11-28T17:52:01.110Z,44.13
2022-11-28T17:54:29.582Z,49.10
2022-11-28T17:56:57.584Z,45.70
2022-11-28T17:59:24.891Z,43.10
2022-11-28T18:01:52.584Z,40.67
2022-11-28T18:04:24.742Z,38.25
2022-11-28T18:06:52.747Z,35.85
2022-11-28T18:09:20.065Z,35.70
2022-11-28T18:11:47.670Z,34.13
2022-11-28T18:14:19.218Z,33.78
2022-11-28T18:16:47.630Z,35.58
2022-11-28T18:19:15.647Z,40.20
2022-11-28T18:21:43.394Z,40.90
2022-11-28T18:24:10.718Z,42.28
2022-11-28T18:26:38.430Z,44.67
2022-11-28T18:29:07.347Z,43.95
2022-11-28T18:31:35.757Z,43.45
2022-11-28T18:34:06.550Z,42.72
2022-11-28T18:36:37.057Z,40.42
2022-11-28T18:39:08.927Z,40.00
2022-11-28T18:41:36.712Z,42.20
2022-11-28T18:44:05.288Z,45.80
2022-11-28T18:46:33.435Z,45.70
2022-11-28T18:49:01.760Z,52.67
2022-11-28T18:51:32.366Z,55.13
2022-11-28T18:54:03.479Z,55.15
2022-11-28T18:56:31.911Z,52.80
2022-11-28T18:59:00.248Z,49.55
2022-11-28T19:01:31.245Z,48.38
2022-11-28T19:04:09.283Z,47.45
2022-11-28T19:06:39.114Z,49.05
2022-11-28T19:09:10.309Z,80.57
2022-11-28T19:11:38.911Z,57.53
2022-11-28T19:14:08.042Z,65.03
2022-11-28T19:16:37.575Z,69.20
2022-11-28T19:19:06.600Z,71.95
2022-11-28T19:21:36.691Z,66.13
2022-11-28T19:24:07.989Z,59.15
2022-11-28T19:26:37.230Z,59.13
2022-11-28T19:29:05.702Z,52.22
2022-11-28T19:31:35.172Z,83.00
2022-11-28T19:34:12.590Z,103.60
2022-11-28T19:36:48.221Z,42.38
2022-11-28T19:39:22.111Z,39.15
2022-11-28T19:41:52.534Z,39.80
2022-11-28T19:44:21.894Z,39.15
2022-11-28T19:46:50.321Z,38.72
2022-11-28T19:49:20.819Z,37.00
2022-11-28T19:51:50.090Z,37.92
2022-11-28T19:54:21.507Z,36.17
2022-11-28T19:56:49.674Z,37.35
2022-11-28T19:59:18.557Z,40.05
2022-11-28T20:01:48.859Z,38.45
2022-11-28T20:04:16.426Z,38.92
2022-11-28T20:06:44.276Z,42.60
2022-11-28T20:09:13.726Z,43.15
2022-11-28T20:11:43.687Z,49.60
2022-11-28T20:14:14.198Z,53.05
2022-11-28T20:16:41.688Z,49.75
2022-11-28T20:19:11.014Z,44.20
2022-11-28T20:21:38.952Z,40.67
2022-11-28T20:24:07.421Z,40.28
2022-11-28T20:26:38.683Z,42.03
2022-11-28T20:29:07.306Z,38.28
2022-11-28T20:31:37.213Z,38.10
2022-11-28T20:34:06.494Z,39.83
2022-11-28T20:36:34.604Z,37.05
2022-11-28T20:39:04.023Z,41.17
2022-11-28T20:41:32.138Z,48.85
2022-11-28T20:44:00.910Z,51.15
2022-11-28T20:46:34.073Z,46.47
2022-11-28T20:49:04.033Z,44.92
2022-11-28T20:51:33.891Z,40.80
2022-11-28T20:54:02.093Z,39.83
2022-11-28T20:56:31.812Z,40.22
2022-11-28T20:59:01.005Z,41.22
2022-11-28T21:01:33.199Z,42.33
2022-11-28T21:04:06.407Z,40.15
2022-11-28T21:06:36.390Z,46.60
2022-11-28T21:09:07.605Z,45.88
2022-11-28T21:11:56.130Z,47.05
2022-11-28T21:14:23.464Z,50.25
2022-11-28T21:16:50.854Z,57.38
2022-11-28T21:19:18.227Z,53.80
2022-11-28T21:21:45.489Z,53.50
2022-11-28T21:24:14.353Z,48.03
2022-11-28T21:26:46.617Z,49.60
2022-11-28T21:29:18.661Z,48.65
2022-11-28T21:31:46.743Z,48.38
2022-11-28T21:34:16.406Z,50.58
2022-11-28T21:36:44.455Z,53.15
2022-11-28T21:39:14.168Z,50.95
2022-11-28T21:41:41.722Z,45.15
2022-11-28T21:44:09.806Z,43.83
2022-11-28T21:46:37.083Z,47.15
2022-11-28T21:49:04.418Z,50.03
2022-11-28T21:51:32.822Z,55.30
2022-11-28T21:54:01.966Z,39.67
2022-11-28T21:56:30.134Z,36.95
2022-11-28T21:58:57.492Z,37.00
2022-11-28T22:01:25.085Z,34.30
2022-11-28T22:03:54.441Z,35.15
2022-11-28T22:06:27.447Z,31.92
2022-11-28T22:08:55.221Z,33.05
2022-11-28T22:11:24.160Z,33.75
2022-11-28T22:13:52.808Z,34.03
2022-11-28T22:16:25.979Z,32.63
2022-11-28T22:18:57.396Z,31.45
2022-11-28T22:24:14.548Z,31.90
2022-11-28T22:26:42.308Z,32.63
2022-11-28T22:29:10.042Z,31.02
2022-11-28T22:31:38.225Z,30.98
2022-11-28T22:34:08.396Z,31.58
2022-11-28T22:36:35.747Z,34.05
2022-11-28T22:39:06.148Z,31.38
2022-11-28T22:41:33.824Z,30.77
2022-11-28T22:44:02.540Z,31.77
2022-11-28T22:46:32.210Z,34.63
2022-11-28T22:49:00.775Z,33.53
2022-11-28T22:51:29.794Z,33.28
2022-11-28T22:53:59.569Z,33.83
